Terminal Aerodrome Forecast
Issued by NWS Sioux Falls, SD

Home | Current Version | Previous Version | Graphics & Text | Print | Product List | Glossary On
Versions: 1 2 3 4 5 6 7 8 9 10 11 12 13 14 15 16 17 18 19
000
FTUS43 KFSD 191120
TAFFSD
TAF
KFSD 191120Z 1912/2012 15005KT P6SM BKN250
     FM191700 17015G22KT P6SM SCT250
     FM200700 17011G21KT 4SM BR OVC010
     FM201000 17012KT 2SM BR OVC004=

USA.gov is the U.S. government's official web portal to all federal, state and local government web resources and services.